ERD weather

CLOSED Berdyansk Airport
Berdyansk, Zaporizhia, Ukraine

Public forecast

Using degrees Celsius for public forecast. Weather courtesy of forecast.io.

METAR (pilot weather report)

Report is more than 6 hours old.

Closest report is Mariupol International Airport, 32.4 nm (60.0 km) ENE. Retrieved 2014/05/10 11:00 UTC (5 years ago):

UKCM 101100Z 15004MPS 110V190 CAVOK 21/15 Q1009 NOSIG

TAF (pilot weather forecast)

Forecast is more than 12 hours old.

Closest forecast is Donetsk International Airport, 85.4 nm (158.2 km) NNE. Retrieved 2014/05/26 06:00 UTC (5 years ago):

TAF UKCC 260508Z 2606/2706 01006G13MPS 9999 SCT030CB TEMPO 2608/2621 VRB10G17MPS 2100 -TSRAGR SQ SCT010 BKN020CB TEMPO 2621/2706 2100 -SHRA BR SCT007 BKN020CB TX27/2612Z TN17/2702Z